sensor_id;sensor_type;location;lat;lon;timestamp;P1;durP1;ratioP1;P2;durP2;ratioP2
3831;SDS011;12460;42.662;23.288;2022-12-07T00:03:11;42.67;;;24.83;;
3831;SDS011;12460;42.662;23.288;2022-12-07T00:18:16;44.53;;;25.70;;
3831;SDS011;12460;42.662;23.288;2022-12-07T00:33:20;39.70;;;25.77;;
3831;SDS011;12460;42.662;23.288;2022-12-07T00:48:25;41.43;;;24.97;;
3831;SDS011;12460;42.662;23.288;2022-12-07T01:03:29;38.97;;;23.97;;
3831;SDS011;12460;42.662;23.288;2022-12-07T01:18:34;36.50;;;22.47;;
3831;SDS011;12460;42.662;23.288;2022-12-07T01:33:39;43.03;;;25.10;;
3831;SDS011;12460;42.662;23.288;2022-12-07T01:48:43;37.33;;;23.23;;
3831;SDS011;12460;42.662;23.288;2022-12-07T02:03:47;38.43;;;23.30;;
3831;SDS011;12460;42.662;23.288;2022-12-07T02:18:59;43.20;;;25.33;;
3831;SDS011;12460;42.662;23.288;2022-12-07T02:34:22;34.90;;;22.30;;
3831;SDS011;12460;42.662;23.288;2022-12-07T02:49:30;42.13;;;23.33;;
3831;SDS011;12460;42.662;23.288;2022-12-07T03:20:00;38.40;;;22.80;;
3831;SDS011;12460;42.662;23.288;2022-12-07T03:50:40;34.03;;;21.53;;
3831;SDS011;12460;42.662;23.288;2022-12-07T04:05:47;38.30;;;21.83;;
3831;SDS011;12460;42.662;23.288;2022-12-07T04:20:52;39.53;;;23.93;;
3831;SDS011;12460;42.662;23.288;2022-12-07T04:35:57;37.60;;;22.90;;
3831;SDS011;12460;42.662;23.288;2022-12-07T04:51:02;38.37;;;23.83;;
3831;SDS011;12460;42.662;23.288;2022-12-07T05:06:07;37.37;;;24.10;;
3831;SDS011;12460;42.662;23.288;2022-12-07T05:21:16;33.53;;;20.90;;
3831;SDS011;12460;42.662;23.288;2022-12-07T05:36:21;35.47;;;21.47;;
3831;SDS011;12460;42.662;23.288;2022-12-07T05:51:26;40.37;;;20.83;;
3831;SDS011;12460;42.662;23.288;2022-12-07T06:06:31;31.97;;;19.47;;
3831;SDS011;12460;42.662;23.288;2022-12-07T06:21:36;32.10;;;19.50;;
3831;SDS011;12460;42.662;23.288;2022-12-07T06:36:53;32.10;;;20.63;;
3831;SDS011;12460;42.662;23.288;2022-12-07T06:52:39;41.17;;;21.60;;
3831;SDS011;12460;42.662;23.288;2022-12-07T07:08:23;40.13;;;22.17;;
3831;SDS011;12460;42.662;23.288;2022-12-07T07:23:28;41.40;;;24.13;;
3831;SDS011;12460;42.662;23.288;2022-12-07T07:38:32;41.80;;;24.47;;
3831;SDS011;12460;42.662;23.288;2022-12-07T07:53:40;41.77;;;25.57;;
3831;SDS011;12460;42.662;23.288;2022-12-07T08:08:50;48.27;;;27.27;;
3831;SDS011;12460;42.662;23.288;2022-12-07T08:24:00;40.07;;;24.80;;
3831;SDS011;12460;42.662;23.288;2022-12-07T08:39:08;37.90;;;23.60;;
3831;SDS011;12460;42.662;23.288;2022-12-07T08:54:37;43.27;;;23.77;;
3831;SDS011;12460;42.662;23.288;2022-12-07T09:09:46;44.63;;;24.00;;
3831;SDS011;12460;42.662;23.288;2022-12-07T09:24:53;39.10;;;23.00;;
3831;SDS011;12460;42.662;23.288;2022-12-07T09:39:58;38.73;;;22.13;;
3831;SDS011;12460;42.662;23.288;2022-12-07T09:55:09;38.83;;;23.33;;
3831;SDS011;12460;42.662;23.288;2022-12-07T10:10:17;39.37;;;21.60;;
3831;SDS011;12460;42.662;23.288;2022-12-07T11:27:37;28.43;;;18.40;;
3831;SDS011;12460;42.662;23.288;2022-12-07T11:42:46;35.00;;;18.20;;
3831;SDS011;12460;42.662;23.288;2022-12-07T11:58:03;34.10;;;18.00;;
3831;SDS011;12460;42.662;23.288;2022-12-07T12:13:14;28.03;;;19.10;;
3831;SDS011;12460;42.662;23.288;2022-12-07T12:43:52;23.87;;;14.87;;
3831;SDS011;12460;42.662;23.288;2022-12-07T13:29:44;20.47;;;12.90;;
3831;SDS011;12460;42.662;23.288;2022-12-07T13:44:53;20.10;;;13.67;;
3831;SDS011;12460;42.662;23.288;2022-12-07T13:59:58;21.50;;;12.53;;
3831;SDS011;12460;42.662;23.288;2022-12-07T14:15:15;19.17;;;10.90;;
3831;SDS011;12460;42.662;23.288;2022-12-07T14:30:26;21.90;;;11.90;;
3831;SDS011;12460;42.662;23.288;2022-12-07T14:45:31;25.37;;;16.30;;
3831;SDS011;12460;42.662;23.288;2022-12-07T15:00:36;27.57;;;17.17;;
3831;SDS011;12460;42.662;23.288;2022-12-07T15:15:41;23.60;;;15.50;;
3831;SDS011;12460;42.662;23.288;2022-12-07T15:30:45;28.10;;;15.10;;
3831;SDS011;12460;42.662;23.288;2022-12-07T15:45:50;37.20;;;21.30;;
3831;SDS011;12460;42.662;23.288;2022-12-07T16:00:56;35.33;;;20.47;;
3831;SDS011;12460;42.662;23.288;2022-12-07T16:16:04;32.93;;;19.73;;
3831;SDS011;12460;42.662;23.288;2022-12-07T16:31:11;36.50;;;21.57;;
3831;SDS011;12460;42.662;23.288;2022-12-07T16:46:17;27.40;;;18.57;;
3831;SDS011;12460;42.662;23.288;2022-12-07T17:01:22;35.53;;;20.87;;
3831;SDS011;12460;42.662;23.288;2022-12-07T17:16:28;51.03;;;27.00;;
3831;SDS011;12460;42.662;23.288;2022-12-07T17:31:32;43.87;;;25.23;;
3831;SDS011;12460;42.662;23.288;2022-12-07T17:46:37;36.70;;;20.47;;
3831;SDS011;12460;42.662;23.288;2022-12-07T18:01:42;27.93;;;18.90;;
3831;SDS011;12460;42.662;23.288;2022-12-07T18:16:47;33.03;;;19.93;;
3831;SDS011;12460;42.662;23.288;2022-12-07T18:31:52;38.93;;;25.13;;
3831;SDS011;12460;42.662;23.288;2022-12-07T18:46:58;55.07;;;35.40;;
3831;SDS011;12460;42.662;23.288;2022-12-07T19:02:04;85.50;;;52.03;;
3831;SDS011;12460;42.662;23.288;2022-12-07T19:17:11;89.50;;;54.70;;
3831;SDS011;12460;42.662;23.288;2022-12-07T19:32:16;90.33;;;53.60;;
3831;SDS011;12460;42.662;23.288;2022-12-07T19:47:21;87.67;;;53.40;;
3831;SDS011;12460;42.662;23.288;2022-12-07T20:02:25;92.47;;;52.50;;
3831;SDS011;12460;42.662;23.288;2022-12-07T20:17:30;94.40;;;59.27;;
3831;SDS011;12460;42.662;23.288;2022-12-07T20:32:34;91.90;;;55.67;;
3831;SDS011;12460;42.662;23.288;2022-12-07T20:47:39;90.43;;;56.37;;
3831;SDS011;12460;42.662;23.288;2022-12-07T21:02:45;76.53;;;48.90;;
3831;SDS011;12460;42.662;23.288;2022-12-07T21:17:50;77.87;;;42.20;;
3831;SDS011;12460;42.662;23.288;2022-12-07T21:32:55;60.10;;;37.47;;
3831;SDS011;12460;42.662;23.288;2022-12-07T21:47:59;52.33;;;34.50;;
3831;SDS011;12460;42.662;23.288;2022-12-07T22:03:04;52.80;;;33.70;;
3831;SDS011;12460;42.662;23.288;2022-12-07T22:18:09;55.80;;;34.33;;
3831;SDS011;12460;42.662;23.288;2022-12-07T22:33:13;53.07;;;33.10;;
3831;SDS011;12460;42.662;23.288;2022-12-07T22:48:18;57.03;;;34.20;;
3831;SDS011;12460;42.662;23.288;2022-12-07T23:03:22;61.83;;;36.40;;
3831;SDS011;12460;42.662;23.288;2022-12-07T23:18:27;47.10;;;29.37;;
3831;SDS011;12460;42.662;23.288;2022-12-07T23:33:32;46.13;;;28.20;;
3831;SDS011;12460;42.662;23.288;2022-12-07T23:48:37;47.77;;;29.00;;
